sensor_id;sensor_type;location;lat;lon;timestamp;P1;durP1;ratioP1;P2;durP2;ratioP2
57317;SDS011;43157;50.982;18.132;2023-04-15T00:01:18;17.50;;;8.20;;
57317;SDS011;43157;50.982;18.132;2023-04-15T00:03:45;19.30;;;8.90;;
57317;SDS011;43157;50.982;18.132;2023-04-15T00:06:11;18.20;;;8.80;;
57317;SDS011;43157;50.982;18.132;2023-04-15T00:08:38;14.90;;;7.00;;
57317;SDS011;43157;50.982;18.132;2023-04-15T00:11:04;17.00;;;7.10;;
57317;SDS011;43157;50.982;18.132;2023-04-15T00:13:33;20.10;;;9.60;;
57317;SDS011;43157;50.982;18.132;2023-04-15T00:15:59;18.70;;;6.60;;
57317;SDS011;43157;50.982;18.132;2023-04-15T00:18:25;19.10;;;8.30;;
57317;SDS011;43157;50.982;18.132;2023-04-15T00:20:51;16.70;;;8.00;;
57317;SDS011;43157;50.982;18.132;2023-04-15T00:23:16;17.00;;;7.90;;
57317;SDS011;43157;50.982;18.132;2023-04-15T00:25:42;17.80;;;7.50;;
57317;SDS011;43157;50.982;18.132;2023-04-15T00:28:08;16.10;;;6.90;;
57317;SDS011;43157;50.982;18.132;2023-04-15T00:30:34;18.20;;;7.70;;
57317;SDS011;43157;50.982;18.132;2023-04-15T00:33:00;18.30;;;7.60;;
57317;SDS011;43157;50.982;18.132;2023-04-15T00:35:28;16.60;;;6.90;;
57317;SDS011;43157;50.982;18.132;2023-04-15T00:37:57;18.60;;;7.80;;
57317;SDS011;43157;50.982;18.132;2023-04-15T00:40:23;17.70;;;6.80;;
57317;SDS011;43157;50.982;18.132;2023-04-15T00:42:49;12.40;;;6.10;;
57317;SDS011;43157;50.982;18.132;2023-04-15T00:45:14;16.40;;;6.40;;
57317;SDS011;43157;50.982;18.132;2023-04-15T00:47:40;17.20;;;7.40;;
57317;SDS011;43157;50.982;18.132;2023-04-15T00:50:08;16.10;;;7.10;;
57317;SDS011;43157;50.982;18.132;2023-04-15T00:52:34;15.30;;;6.20;;
57317;SDS011;43157;50.982;18.132;2023-04-15T00:55:00;16.50;;;6.80;;
57317;SDS011;43157;50.982;18.132;2023-04-15T00:57:27;15.10;;;6.20;;
57317;SDS011;43157;50.982;18.132;2023-04-15T00:59:53;16.90;;;5.90;;
57317;SDS011;43157;50.982;18.132;2023-04-15T01:02:21;13.90;;;6.60;;
57317;SDS011;43157;50.982;18.132;2023-04-15T01:04:47;17.20;;;6.70;;
57317;SDS011;43157;50.982;18.132;2023-04-15T01:07:13;14.20;;;5.70;;
57317;SDS011;43157;50.982;18.132;2023-04-15T01:09:39;14.10;;;6.50;;
57317;SDS011;43157;50.982;18.132;2023-04-15T01:12:05;15.20;;;6.30;;
57317;SDS011;43157;50.982;18.132;2023-04-15T01:14:32;15.00;;;6.90;;
57317;SDS011;43157;50.982;18.132;2023-04-15T01:16:58;14.40;;;6.20;;
57317;SDS011;43157;50.982;18.132;2023-04-15T01:19:24;14.70;;;6.00;;
57317;SDS011;43157;50.982;18.132;2023-04-15T01:21:50;14.00;;;6.30;;
57317;SDS011;43157;50.982;18.132;2023-04-15T01:24:17;13.10;;;6.00;;
57317;SDS011;43157;50.982;18.132;2023-04-15T01:26:43;13.30;;;5.40;;
57317;SDS011;43157;50.982;18.132;2023-04-15T01:29:09;12.60;;;5.10;;
57317;SDS011;43157;50.982;18.132;2023-04-15T01:31:35;11.90;;;5.00;;
57317;SDS011;43157;50.982;18.132;2023-04-15T01:34:01;14.60;;;6.00;;
57317;SDS011;43157;50.982;18.132;2023-04-15T01:36:27;15.10;;;6.80;;
57317;SDS011;43157;50.982;18.132;2023-04-15T01:38:54;13.10;;;6.00;;
57317;SDS011;43157;50.982;18.132;2023-04-15T01:41:21;13.70;;;5.30;;
57317;SDS011;43157;50.982;18.132;2023-04-15T01:43:51;13.30;;;5.70;;
57317;SDS011;43157;50.982;18.132;2023-04-15T01:46:17;15.50;;;5.50;;
57317;SDS011;43157;50.982;18.132;2023-04-15T01:48:43;12.70;;;5.60;;
57317;SDS011;43157;50.982;18.132;2023-04-15T01:51:09;13.30;;;5.60;;
57317;SDS011;43157;50.982;18.132;2023-04-15T01:53:35;15.10;;;5.80;;
57317;SDS011;43157;50.982;18.132;2023-04-15T01:56:01;13.80;;;5.70;;
57317;SDS011;43157;50.982;18.132;2023-04-15T01:58:27;14.60;;;6.00;;
57317;SDS011;43157;50.982;18.132;2023-04-15T02:00:53;12.60;;;5.10;;
57317;SDS011;43157;50.982;18.132;2023-04-15T02:03:18;12.90;;;5.90;;
57317;SDS011;43157;50.982;18.132;2023-04-15T02:05:44;14.10;;;5.90;;
57317;SDS011;43157;50.982;18.132;2023-04-15T02:08:09;12.30;;;5.70;;
57317;SDS011;43157;50.982;18.132;2023-04-15T02:10:36;14.40;;;6.10;;
57317;SDS011;43157;50.982;18.132;2023-04-15T02:13:03;16.40;;;6.60;;
57317;SDS011;43157;50.982;18.132;2023-04-15T02:15:29;17.20;;;7.60;;
57317;SDS011;43157;50.982;18.132;2023-04-15T02:17:54;15.20;;;7.10;;
57317;SDS011;43157;50.982;18.132;2023-04-15T02:20:20;13.90;;;6.30;;
57317;SDS011;43157;50.982;18.132;2023-04-15T02:22:47;15.20;;;7.10;;
57317;SDS011;43157;50.982;18.132;2023-04-15T02:25:13;14.00;;;6.90;;
57317;SDS011;43157;50.982;18.132;2023-04-15T02:27:40;13.90;;;6.70;;
57317;SDS011;43157;50.982;18.132;2023-04-15T02:30:06;14.10;;;7.30;;
57317;SDS011;43157;50.982;18.132;2023-04-15T02:32:33;14.90;;;7.10;;
57317;SDS011;43157;50.982;18.132;2023-04-15T02:35:06;15.00;;;6.90;;
57317;SDS011;43157;50.982;18.132;2023-04-15T02:37:34;14.60;;;6.80;;
57317;SDS011;43157;50.982;18.132;2023-04-15T02:40:06;15.20;;;7.00;;
57317;SDS011;43157;50.982;18.132;2023-04-15T02:42:34;18.20;;;8.60;;
57317;SDS011;43157;50.982;18.132;2023-04-15T02:45:00;15.80;;;8.00;;
57317;SDS011;43157;50.982;18.132;2023-04-15T02:47:25;17.80;;;7.80;;
57317;SDS011;43157;50.982;18.132;2023-04-15T02:49:51;17.80;;;8.50;;
57317;SDS011;43157;50.982;18.132;2023-04-15T02:52:17;20.50;;;9.80;;
57317;SDS011;43157;50.982;18.132;2023-04-15T02:54:42;21.10;;;9.80;;
57317;SDS011;43157;50.982;18.132;2023-04-15T02:57:08;20.00;;;9.50;;
57317;SDS011;43157;50.982;18.132;2023-04-15T02:59:35;18.90;;;8.50;;
57317;SDS011;43157;50.982;18.132;2023-04-15T03:02:01;17.40;;;8.80;;
57317;SDS011;43157;50.982;18.132;2023-04-15T03:04:26;21.90;;;9.70;;
57317;SDS011;43157;50.982;18.132;2023-04-15T03:06:54;21.10;;;9.80;;
57317;SDS011;43157;50.982;18.132;2023-04-15T03:09:21;20.20;;;10.70;;
57317;SDS011;43157;50.982;18.132;2023-04-15T03:11:46;22.20;;;10.60;;
57317;SDS011;43157;50.982;18.132;2023-04-15T03:14:12;21.00;;;9.20;;
57317;SDS011;43157;50.982;18.132;2023-04-15T03:16:38;19.20;;;8.50;;
57317;SDS011;43157;50.982;18.132;2023-04-15T03:19:03;20.40;;;9.40;;
57317;SDS011;43157;50.982;18.132;2023-04-15T03:21:29;17.50;;;7.70;;
57317;SDS011;43157;50.982;18.132;2023-04-15T03:23:55;16.80;;;7.70;;
57317;SDS011;43157;50.982;18.132;2023-04-15T03:26:28;18.80;;;8.10;;
57317;SDS011;43157;50.982;18.132;2023-04-15T03:28:55;18.80;;;8.60;;
57317;SDS011;43157;50.982;18.132;2023-04-15T03:31:20;17.90;;;8.50;;
57317;SDS011;43157;50.982;18.132;2023-04-15T03:33:46;17.40;;;8.00;;
57317;SDS011;43157;50.982;18.132;2023-04-15T03:36:12;13.80;;;7.10;;
57317;SDS011;43157;50.982;18.132;2023-04-15T03:38:38;15.00;;;6.20;;
57317;SDS011;43157;50.982;18.132;2023-04-15T03:41:03;10.10;;;4.50;;
57317;SDS011;43157;50.982;18.132;2023-04-15T03:43:29;12.80;;;5.50;;
57317;SDS011;43157;50.982;18.132;2023-04-15T03:45:55;11.80;;;4.70;;
57317;SDS011;43157;50.982;18.132;2023-04-15T03:48:21;11.90;;;4.80;;
57317;SDS011;43157;50.982;18.132;2023-04-15T03:50:47;12.20;;;4.60;;
57317;SDS011;43157;50.982;18.132;2023-04-15T03:53:12;12.70;;;5.20;;
57317;SDS011;43157;50.982;18.132;2023-04-15T03:55:39;12.40;;;4.60;;
57317;SDS011;43157;50.982;18.132;2023-04-15T03:58:04;12.40;;;4.80;;
57317;SDS011;43157;50.982;18.132;2023-04-15T04:14:08;12.10;;;4.90;;
57317;SDS011;43157;50.982;18.132;2023-04-15T04:16:35;12.00;;;5.50;;
57317;SDS011;43157;50.982;18.132;2023-04-15T04:19:01;14.70;;;5.20;;
57317;SDS011;43157;50.982;18.132;2023-04-15T04:21:26;12.40;;;5.20;;
57317;SDS011;43157;50.982;18.132;2023-04-15T04:23:52;14.60;;;4.90;;
57317;SDS011;43157;50.982;18.132;2023-04-15T04:26:18;13.10;;;5.50;;
57317;SDS011;43157;50.982;18.132;2023-04-15T04:28:44;13.20;;;6.10;;
57317;SDS011;43157;50.982;18.132;2023-04-15T04:31:09;16.60;;;7.10;;
57317;SDS011;43157;50.982;18.132;2023-04-15T04:33:35;16.60;;;9.10;;
57317;SDS011;43157;50.982;18.132;2023-04-15T04:36:01;15.50;;;7.20;;
57317;SDS011;43157;50.982;18.132;2023-04-15T04:38:26;16.50;;;7.10;;
57317;SDS011;43157;50.982;18.132;2023-04-15T04:40:52;14.40;;;5.80;;
57317;SDS011;43157;50.982;18.132;2023-04-15T04:43:18;14.30;;;5.70;;
57317;SDS011;43157;50.982;18.132;2023-04-15T04:45:43;28.60;;;11.40;;
57317;SDS011;43157;50.982;18.132;2023-04-15T04:48:09;18.10;;;8.10;;
57317;SDS011;43157;50.982;18.132;2023-04-15T04:50:35;19.20;;;8.30;;
57317;SDS011;43157;50.982;18.132;2023-04-15T04:53:00;15.00;;;7.10;;
57317;SDS011;43157;50.982;18.132;2023-04-15T04:55:26;13.20;;;5.60;;
57317;SDS011;43157;50.982;18.132;2023-04-15T04:57:52;21.80;;;9.60;;
57317;SDS011;43157;50.982;18.132;2023-04-15T05:00:18;18.90;;;8.00;;
57317;SDS011;43157;50.982;18.132;2023-04-15T05:02:43;18.30;;;7.70;;
57317;SDS011;43157;50.982;18.132;2023-04-15T05:05:09;15.50;;;6.60;;
57317;SDS011;43157;50.982;18.132;2023-04-15T05:07:36;17.00;;;8.00;;
57317;SDS011;43157;50.982;18.132;2023-04-15T05:10:03;13.90;;;5.70;;
57317;SDS011;43157;50.982;18.132;2023-04-15T05:12:29;13.50;;;5.50;;
57317;SDS011;43157;50.982;18.132;2023-04-15T05:14:54;12.50;;;5.70;;
57317;SDS011;43157;50.982;18.132;2023-04-15T05:17:20;13.00;;;5.00;;
57317;SDS011;43157;50.982;18.132;2023-04-15T05:19:48;12.40;;;5.50;;
57317;SDS011;43157;50.982;18.132;2023-04-15T05:22:14;12.60;;;4.40;;
57317;SDS011;43157;50.982;18.132;2023-04-15T05:24:39;10.30;;;3.50;;
57317;SDS011;43157;50.982;18.132;2023-04-15T05:27:05;10.70;;;3.70;;
57317;SDS011;43157;50.982;18.132;2023-04-15T05:29:32;12.60;;;4.40;;
57317;SDS011;43157;50.982;18.132;2023-04-15T05:31:58;9.40;;;3.80;;
57317;SDS011;43157;50.982;18.132;2023-04-15T05:34:24;11.50;;;3.90;;
57317;SDS011;43157;50.982;18.132;2023-04-15T05:36:50;8.20;;;2.70;;
57317;SDS011;43157;50.982;18.132;2023-04-15T05:39:16;9.70;;;3.20;;
57317;SDS011;43157;50.982;18.132;2023-04-15T05:41:43;7.70;;;3.10;;
57317;SDS011;43157;50.982;18.132;2023-04-15T05:44:09;7.00;;;2.30;;
57317;SDS011;43157;50.982;18.132;2023-04-15T05:46:34;10.60;;;3.10;;
57317;SDS011;43157;50.982;18.132;2023-04-15T05:49:00;10.30;;;3.40;;
57317;SDS011;43157;50.982;18.132;2023-04-15T05:51:26;6.50;;;2.30;;
57317;SDS011;43157;50.982;18.132;2023-04-15T05:53:52;5.50;;;1.90;;
57317;SDS011;43157;50.982;18.132;2023-04-15T05:56:17;6.90;;;2.60;;
57317;SDS011;43157;50.982;18.132;2023-04-15T05:58:44;11.60;;;4.50;;
57317;SDS011;43157;50.982;18.132;2023-04-15T06:01:10;9.80;;;4.20;;
57317;SDS011;43157;50.982;18.132;2023-04-15T06:03:36;9.80;;;3.90;;
57317;SDS011;43157;50.982;18.132;2023-04-15T06:06:03;7.10;;;2.60;;
57317;SDS011;43157;50.982;18.132;2023-04-15T06:08:29;11.30;;;4.10;;
57317;SDS011;43157;50.982;18.132;2023-04-15T06:10:54;15.50;;;5.40;;
57317;SDS011;43157;50.982;18.132;2023-04-15T06:13:20;16.20;;;4.80;;
57317;SDS011;43157;50.982;18.132;2023-04-15T06:15:45;16.40;;;5.60;;
57317;SDS011;43157;50.982;18.132;2023-04-15T06:18:11;14.80;;;4.70;;
57317;SDS011;43157;50.982;18.132;2023-04-15T06:20:37;15.80;;;4.20;;
57317;SDS011;43157;50.982;18.132;2023-04-15T06:23:03;8.60;;;2.20;;
57317;SDS011;43157;50.982;18.132;2023-04-15T06:25:28;7.80;;;2.00;;
57317;SDS011;43157;50.982;18.132;2023-04-15T06:27:54;4.60;;;1.50;;
57317;SDS011;43157;50.982;18.132;2023-04-15T06:30:20;5.80;;;1.90;;
57317;SDS011;43157;50.982;18.132;2023-04-15T06:32:45;6.10;;;2.00;;
57317;SDS011;43157;50.982;18.132;2023-04-15T06:35:11;5.00;;;1.50;;
57317;SDS011;43157;50.982;18.132;2023-04-15T06:37:37;7.30;;;1.60;;
57317;SDS011;43157;50.982;18.132;2023-04-15T06:40:03;4.50;;;1.60;;
57317;SDS011;43157;50.982;18.132;2023-04-15T06:42:29;3.80;;;1.30;;
57317;SDS011;43157;50.982;18.132;2023-04-15T06:44:55;5.10;;;1.70;;
57317;SDS011;43157;50.982;18.132;2023-04-15T06:47:20;8.10;;;3.00;;
57317;SDS011;43157;50.982;18.132;2023-04-15T06:49:47;5.90;;;2.10;;
57317;SDS011;43157;50.982;18.132;2023-04-15T06:52:13;4.20;;;1.20;;
57317;SDS011;43157;50.982;18.132;2023-04-15T06:54:41;4.40;;;1.30;;
57317;SDS011;43157;50.982;18.132;2023-04-15T06:57:07;4.20;;;1.40;;
57317;SDS011;43157;50.982;18.132;2023-04-15T06:59:34;5.50;;;1.60;;
57317;SDS011;43157;50.982;18.132;2023-04-15T07:01:59;3.90;;;1.40;;
57317;SDS011;43157;50.982;18.132;2023-04-15T07:04:25;3.80;;;1.10;;
57317;SDS011;43157;50.982;18.132;2023-04-15T07:06:52;4.40;;;1.10;;
57317;SDS011;43157;50.982;18.132;2023-04-15T07:09:20;5.10;;;1.30;;
57317;SDS011;43157;50.982;18.132;2023-04-15T07:11:46;5.90;;;1.90;;
57317;SDS011;43157;50.982;18.132;2023-04-15T07:14:13;5.00;;;1.50;;
57317;SDS011;43157;50.982;18.132;2023-04-15T07:16:38;6.20;;;2.50;;
57317;SDS011;43157;50.982;18.132;2023-04-15T07:19:04;8.50;;;3.70;;
57317;SDS011;43157;50.982;18.132;2023-04-15T07:21:30;6.40;;;1.60;;
57317;SDS011;43157;50.982;18.132;2023-04-15T07:23:56;6.60;;;2.10;;
57317;SDS011;43157;50.982;18.132;2023-04-15T07:26:23;7.80;;;2.40;;
57317;SDS011;43157;50.982;18.132;2023-04-15T07:28:49;9.10;;;2.80;;
57317;SDS011;43157;50.982;18.132;2023-04-15T07:31:15;8.90;;;3.40;;
57317;SDS011;43157;50.982;18.132;2023-04-15T07:33:41;9.40;;;2.60;;
57317;SDS011;43157;50.982;18.132;2023-04-15T07:36:07;5.00;;;1.20;;
57317;SDS011;43157;50.982;18.132;2023-04-15T07:38:33;5.50;;;1.00;;
57317;SDS011;43157;50.982;18.132;2023-04-15T07:40:59;7.00;;;1.60;;
57317;SDS011;43157;50.982;18.132;2023-04-15T07:43:24;4.00;;;0.90;;
57317;SDS011;43157;50.982;18.132;2023-04-15T07:45:50;5.30;;;0.90;;
57317;SDS011;43157;50.982;18.132;2023-04-15T07:48:15;6.60;;;1.50;;
57317;SDS011;43157;50.982;18.132;2023-04-15T07:50:41;6.80;;;1.70;;
57317;SDS011;43157;50.982;18.132;2023-04-15T07:53:07;4.90;;;0.90;;
57317;SDS011;43157;50.982;18.132;2023-04-15T07:55:33;5.00;;;1.10;;
57317;SDS011;43157;50.982;18.132;2023-04-15T07:57:59;4.00;;;0.90;;
57317;SDS011;43157;50.982;18.132;2023-04-15T08:00:24;5.70;;;1.30;;
57317;SDS011;43157;50.982;18.132;2023-04-15T08:02:51;5.30;;;1.30;;
57317;SDS011;43157;50.982;18.132;2023-04-15T08:05:17;2.40;;;0.40;;
57317;SDS011;43157;50.982;18.132;2023-04-15T08:07:43;3.10;;;0.60;;
57317;SDS011;43157;50.982;18.132;2023-04-15T08:10:12;4.80;;;1.00;;
57317;SDS011;43157;50.982;18.132;2023-04-15T08:12:37;7.20;;;1.40;;
57317;SDS011;43157;50.982;18.132;2023-04-15T08:15:03;7.40;;;2.00;;
57317;SDS011;43157;50.982;18.132;2023-04-15T08:17:29;5.90;;;1.50;;
57317;SDS011;43157;50.982;18.132;2023-04-15T08:19:54;7.40;;;1.70;;
57317;SDS011;43157;50.982;18.132;2023-04-15T08:22:21;5.60;;;1.90;;
57317;SDS011;43157;50.982;18.132;2023-04-15T08:24:47;3.30;;;0.90;;
57317;SDS011;43157;50.982;18.132;2023-04-15T08:27:12;3.30;;;0.90;;
57317;SDS011;43157;50.982;18.132;2023-04-15T08:29:38;2.60;;;0.60;;
57317;SDS011;43157;50.982;18.132;2023-04-15T08:32:04;1.70;;;0.40;;
57317;SDS011;43157;50.982;18.132;2023-04-15T08:34:30;0.80;;;0.20;;
57317;SDS011;43157;50.982;18.132;2023-04-15T08:36:56;2.50;;;0.70;;
57317;SDS011;43157;50.982;18.132;2023-04-15T08:39:21;2.30;;;0.60;;
57317;SDS011;43157;50.982;18.132;2023-04-15T08:41:51;0.90;;;0.30;;
57317;SDS011;43157;50.982;18.132;2023-04-15T08:44:18;0.90;;;0.30;;
57317;SDS011;43157;50.982;18.132;2023-04-15T08:46:44;4.00;;;1.20;;
57317;SDS011;43157;50.982;18.132;2023-04-15T08:49:10;3.80;;;0.60;;
57317;SDS011;43157;50.982;18.132;2023-04-15T08:51:39;6.00;;;2.40;;
57317;SDS011;43157;50.982;18.132;2023-04-15T08:54:06;3.20;;;0.60;;
57317;SDS011;43157;50.982;18.132;2023-04-15T08:56:33;3.60;;;1.10;;
57317;SDS011;43157;50.982;18.132;2023-04-15T08:58:59;2.60;;;0.60;;
57317;SDS011;43157;50.982;18.132;2023-04-15T09:01:25;0.90;;;0.40;;
57317;SDS011;43157;50.982;18.132;2023-04-15T09:03:51;0.50;;;0.20;;
57317;SDS011;43157;50.982;18.132;2023-04-15T09:06:19;5.20;;;1.50;;
57317;SDS011;43157;50.982;18.132;2023-04-15T09:08:46;2.10;;;0.50;;
57317;SDS011;43157;50.982;18.132;2023-04-15T09:11:12;2.40;;;0.60;;
57317;SDS011;43157;50.982;18.132;2023-04-15T09:13:38;0.90;;;0.20;;
57317;SDS011;43157;50.982;18.132;2023-04-15T09:16:04;1.50;;;0.20;;
57317;SDS011;43157;50.982;18.132;2023-04-15T09:18:31;1.00;;;0.40;;
57317;SDS011;43157;50.982;18.132;2023-04-15T09:21:08;1.90;;;0.50;;
57317;SDS011;43157;50.982;18.132;2023-04-15T09:23:37;1.90;;;0.40;;
57317;SDS011;43157;50.982;18.132;2023-04-15T09:26:03;3.60;;;0.60;;
57317;SDS011;43157;50.982;18.132;2023-04-15T09:28:30;5.40;;;1.00;;
57317;SDS011;43157;50.982;18.132;2023-04-15T09:30:59;3.50;;;0.90;;
57317;SDS011;43157;50.982;18.132;2023-04-15T09:33:26;3.90;;;0.80;;
57317;SDS011;43157;50.982;18.132;2023-04-15T09:35:57;2.30;;;0.60;;
57317;SDS011;43157;50.982;18.132;2023-04-15T09:38:27;1.60;;;0.40;;
57317;SDS011;43157;50.982;18.132;2023-04-15T09:40:53;3.30;;;0.50;;
57317;SDS011;43157;50.982;18.132;2023-04-15T09:43:19;2.40;;;0.50;;
57317;SDS011;43157;50.982;18.132;2023-04-15T09:48:20;1.30;;;0.30;;
57317;SDS011;43157;50.982;18.132;2023-04-15T09:50:51;1.30;;;0.40;;
57317;SDS011;43157;50.982;18.132;2023-04-15T09:53:22;1.70;;;0.40;;
57317;SDS011;43157;50.982;18.132;2023-04-15T09:55:50;3.20;;;0.90;;
57317;SDS011;43157;50.982;18.132;2023-04-15T09:58:20;1.30;;;0.40;;
57317;SDS011;43157;50.982;18.132;2023-04-15T10:00:48;1.80;;;0.50;;
57317;SDS011;43157;50.982;18.132;2023-04-15T10:03:17;3.20;;;0.70;;
57317;SDS011;43157;50.982;18.132;2023-04-15T10:05:45;1.70;;;0.50;;
57317;SDS011;43157;50.982;18.132;2023-04-15T10:08:12;1.30;;;0.40;;
57317;SDS011;43157;50.982;18.132;2023-04-15T10:10:38;2.80;;;0.70;;
57317;SDS011;43157;50.982;18.132;2023-04-15T10:13:05;3.10;;;0.60;;
57317;SDS011;43157;50.982;18.132;2023-04-15T10:15:30;2.00;;;0.40;;
57317;SDS011;43157;50.982;18.132;2023-04-15T10:17:57;2.00;;;0.40;;
57317;SDS011;43157;50.982;18.132;2023-04-15T10:20:24;2.40;;;0.50;;
57317;SDS011;43157;50.982;18.132;2023-04-15T10:22:51;2.10;;;0.40;;
57317;SDS011;43157;50.982;18.132;2023-04-15T10:25:17;1.70;;;0.40;;
57317;SDS011;43157;50.982;18.132;2023-04-15T10:27:43;3.80;;;0.50;;
57317;SDS011;43157;50.982;18.132;2023-04-15T10:30:09;5.30;;;1.50;;
57317;SDS011;43157;50.982;18.132;2023-04-15T10:32:35;4.10;;;1.10;;
57317;SDS011;43157;50.982;18.132;2023-04-15T10:35:02;1.50;;;0.30;;
57317;SDS011;43157;50.982;18.132;2023-04-15T10:37:33;2.00;;;0.50;;
57317;SDS011;43157;50.982;18.132;2023-04-15T10:40:10;1.90;;;0.40;;
57317;SDS011;43157;50.982;18.132;2023-04-15T10:42:56;3.30;;;0.70;;
57317;SDS011;43157;50.982;18.132;2023-04-15T10:45:24;2.40;;;0.50;;
57317;SDS011;43157;50.982;18.132;2023-04-15T10:47:53;2.30;;;0.80;;
57317;SDS011;43157;50.982;18.132;2023-04-15T10:50:20;4.90;;;1.60;;
57317;SDS011;43157;50.982;18.132;2023-04-15T10:52:49;3.90;;;0.70;;
57317;SDS011;43157;50.982;18.132;2023-04-15T10:55:20;2.40;;;0.70;;
57317;SDS011;43157;50.982;18.132;2023-04-15T10:57:50;2.30;;;0.40;;
57317;SDS011;43157;50.982;18.132;2023-04-15T11:00:18;4.70;;;1.00;;
57317;SDS011;43157;50.982;18.132;2023-04-15T11:02:46;4.60;;;0.60;;
57317;SDS011;43157;50.982;18.132;2023-04-15T11:05:14;3.90;;;0.90;;
57317;SDS011;43157;50.982;18.132;2023-04-15T11:12:39;4.20;;;0.90;;
57317;SDS011;43157;50.982;18.132;2023-04-15T11:18:13;4.70;;;1.30;;
57317;SDS011;43157;50.982;18.132;2023-04-15T11:20:44;4.00;;;1.10;;
57317;SDS011;43157;50.982;18.132;2023-04-15T11:23:11;3.30;;;0.70;;
57317;SDS011;43157;50.982;18.132;2023-04-15T11:25:38;3.20;;;0.60;;
57317;SDS011;43157;50.982;18.132;2023-04-15T11:28:04;2.50;;;0.60;;
57317;SDS011;43157;50.982;18.132;2023-04-15T11:30:31;3.90;;;0.60;;
57317;SDS011;43157;50.982;18.132;2023-04-15T11:32:59;3.70;;;0.60;;
57317;SDS011;43157;50.982;18.132;2023-04-15T11:35:25;2.40;;;0.60;;
57317;SDS011;43157;50.982;18.132;2023-04-15T11:37:52;3.40;;;0.70;;
57317;SDS011;43157;50.982;18.132;2023-04-15T11:40:23;3.50;;;0.70;;
57317;SDS011;43157;50.982;18.132;2023-04-15T11:43:02;2.10;;;0.50;;
57317;SDS011;43157;50.982;18.132;2023-04-15T11:45:32;4.60;;;1.00;;
57317;SDS011;43157;50.982;18.132;2023-04-15T11:48:07;2.10;;;0.60;;
57317;SDS011;43157;50.982;18.132;2023-04-15T11:50:35;3.20;;;0.60;;
57317;SDS011;43157;50.982;18.132;2023-04-15T11:53:02;2.90;;;0.50;;
57317;SDS011;43157;50.982;18.132;2023-04-15T11:55:29;3.60;;;0.90;;
57317;SDS011;43157;50.982;18.132;2023-04-15T11:58:05;4.00;;;0.90;;
57317;SDS011;43157;50.982;18.132;2023-04-15T12:00:33;2.50;;;0.50;;
57317;SDS011;43157;50.982;18.132;2023-04-15T12:06:23;1.60;;;0.50;;
57317;SDS011;43157;50.982;18.132;2023-04-15T12:11:38;1.70;;;0.50;;
57317;SDS011;43157;50.982;18.132;2023-04-15T12:14:20;4.20;;;0.70;;
57317;SDS011;43157;50.982;18.132;2023-04-15T12:16:50;6.30;;;1.10;;
57317;SDS011;43157;50.982;18.132;2023-04-15T12:21:56;8.30;;;1.80;;
57317;SDS011;43157;50.982;18.132;2023-04-15T12:24:25;10.00;;;3.80;;
57317;SDS011;43157;50.982;18.132;2023-04-15T12:26:52;3.30;;;0.80;;
57317;SDS011;43157;50.982;18.132;2023-04-15T12:29:23;6.00;;;0.90;;
57317;SDS011;43157;50.982;18.132;2023-04-15T12:31:54;3.60;;;0.70;;
57317;SDS011;43157;50.982;18.132;2023-04-15T12:36:53;3.40;;;0.70;;
57317;SDS011;43157;50.982;18.132;2023-04-15T12:39:21;2.30;;;0.70;;
57317;SDS011;43157;50.982;18.132;2023-04-15T12:41:51;3.30;;;0.70;;
57317;SDS011;43157;50.982;18.132;2023-04-15T12:44:17;2.60;;;0.60;;
57317;SDS011;43157;50.982;18.132;2023-04-15T12:46:43;3.20;;;0.70;;
57317;SDS011;43157;50.982;18.132;2023-04-15T12:49:08;2.50;;;0.70;;
57317;SDS011;43157;50.982;18.132;2023-04-15T12:51:34;2.80;;;0.80;;
57317;SDS011;43157;50.982;18.132;2023-04-15T12:53:59;2.50;;;0.70;;
57317;SDS011;43157;50.982;18.132;2023-04-15T12:56:25;3.00;;;0.70;;
57317;SDS011;43157;50.982;18.132;2023-04-15T12:58:51;2.00;;;0.70;;
57317;SDS011;43157;50.982;18.132;2023-04-15T13:01:17;3.00;;;0.70;;
57317;SDS011;43157;50.982;18.132;2023-04-15T13:03:43;2.50;;;0.60;;
57317;SDS011;43157;50.982;18.132;2023-04-15T13:06:09;4.40;;;1.20;;
57317;SDS011;43157;50.982;18.132;2023-04-15T13:08:34;8.30;;;2.40;;
57317;SDS011;43157;50.982;18.132;2023-04-15T13:11:00;4.20;;;0.80;;
57317;SDS011;43157;50.982;18.132;2023-04-15T13:13:26;3.40;;;0.70;;
57317;SDS011;43157;50.982;18.132;2023-04-15T13:15:51;3.20;;;0.80;;
57317;SDS011;43157;50.982;18.132;2023-04-15T13:18:17;2.50;;;0.60;;
57317;SDS011;43157;50.982;18.132;2023-04-15T13:20:43;4.40;;;0.90;;
57317;SDS011;43157;50.982;18.132;2023-04-15T13:23:08;3.40;;;0.80;;
57317;SDS011;43157;50.982;18.132;2023-04-15T13:25:35;1.80;;;0.60;;
57317;SDS011;43157;50.982;18.132;2023-04-15T13:28:00;6.80;;;2.00;;
57317;SDS011;43157;50.982;18.132;2023-04-15T13:30:26;7.50;;;2.70;;
57317;SDS011;43157;50.982;18.132;2023-04-15T13:32:52;9.40;;;3.40;;
57317;SDS011;43157;50.982;18.132;2023-04-15T13:35:18;8.90;;;3.50;;
57317;SDS011;43157;50.982;18.132;2023-04-15T13:37:45;8.60;;;2.80;;
57317;SDS011;43157;50.982;18.132;2023-04-15T13:40:11;9.70;;;3.30;;
57317;SDS011;43157;50.982;18.132;2023-04-15T13:42:37;9.80;;;3.60;;
57317;SDS011;43157;50.982;18.132;2023-04-15T13:45:03;9.50;;;3.50;;
57317;SDS011;43157;50.982;18.132;2023-04-15T13:47:29;9.80;;;3.60;;
57317;SDS011;43157;50.982;18.132;2023-04-15T13:49:54;10.00;;;3.50;;
57317;SDS011;43157;50.982;18.132;2023-04-15T13:52:21;11.00;;;3.40;;
57317;SDS011;43157;50.982;18.132;2023-04-15T13:54:47;9.10;;;3.30;;
57317;SDS011;43157;50.982;18.132;2023-04-15T13:57:13;9.40;;;3.20;;
57317;SDS011;43157;50.982;18.132;2023-04-15T13:59:39;7.90;;;2.60;;
57317;SDS011;43157;50.982;18.132;2023-04-15T14:02:05;8.50;;;3.40;;
57317;SDS011;43157;50.982;18.132;2023-04-15T14:04:31;8.90;;;3.20;;
57317;SDS011;43157;50.982;18.132;2023-04-15T14:06:57;9.30;;;3.30;;
57317;SDS011;43157;50.982;18.132;2023-04-15T14:09:23;9.40;;;2.90;;
57317;SDS011;43157;50.982;18.132;2023-04-15T14:11:49;7.90;;;2.70;;
57317;SDS011;43157;50.982;18.132;2023-04-15T14:14:15;7.30;;;2.70;;
57317;SDS011;43157;50.982;18.132;2023-04-15T14:16:40;8.50;;;3.10;;
57317;SDS011;43157;50.982;18.132;2023-04-15T14:19:06;7.40;;;2.20;;
57317;SDS011;43157;50.982;18.132;2023-04-15T14:21:32;8.60;;;2.50;;
57317;SDS011;43157;50.982;18.132;2023-04-15T14:23:57;5.60;;;2.00;;
57317;SDS011;43157;50.982;18.132;2023-04-15T14:26:23;6.70;;;2.40;;
57317;SDS011;43157;50.982;18.132;2023-04-15T14:28:50;6.80;;;2.40;;
57317;SDS011;43157;50.982;18.132;2023-04-15T14:31:16;6.30;;;2.30;;
57317;SDS011;43157;50.982;18.132;2023-04-15T14:33:41;7.10;;;2.20;;
57317;SDS011;43157;50.982;18.132;2023-04-15T14:36:07;8.60;;;3.00;;
57317;SDS011;43157;50.982;18.132;2023-04-15T14:38:34;7.40;;;2.90;;
57317;SDS011;43157;50.982;18.132;2023-04-15T14:41:06;8.40;;;2.80;;
57317;SDS011;43157;50.982;18.132;2023-04-15T14:43:33;9.50;;;3.40;;
57317;SDS011;43157;50.982;18.132;2023-04-15T14:45:59;32.60;;;29.30;;
57317;SDS011;43157;50.982;18.132;2023-04-15T14:48:24;9.50;;;3.50;;
57317;SDS011;43157;50.982;18.132;2023-04-15T14:50:50;10.40;;;3.90;;
57317;SDS011;43157;50.982;18.132;2023-04-15T14:53:16;9.50;;;3.60;;
57317;SDS011;43157;50.982;18.132;2023-04-15T14:55:42;8.00;;;3.30;;
57317;SDS011;43157;50.982;18.132;2023-04-15T14:58:08;6.20;;;2.00;;
57317;SDS011;43157;50.982;18.132;2023-04-15T15:00:34;9.10;;;2.90;;